Terminal Aerodrome Forecast
Issued by NWS

Current Version | Previous Version | Text Only | Print | Product List | Glossary On
Versions: 1 2 3 4 5 6 7 8 9 10 11 12 13 14 15
000
FTUS46 KPDT 231100
TAFYKM
TAF
KYKM 231120Z 2312/2412 25008KT P6SM FEW050 BKN080
     FM232100 25010KT P6SM SCT080
     FM240200 27007KT P6SM SCT080
     FM240800 27007KT P6SM BKN200=

USA.gov is the U.S. government's official web portal to all federal, state and local government web resources and services.